Terminal Aerodrome Forecast
Issued by NWS

Home | Current Version | Previous Version | Text Only | Print | Product List | Glossary On
Versions: 1 2 3 4 5 6 7 8 9 10 11 12
000
FTUS42 KMLB 291100
TAFLEE
TAF
KLEE 291128Z 2912/3012 02003KT P6SM SCT250
     FM291500 03005KT P6SM SCT250
     FM291900 14005KT P6SM SCT050 SCT250
     FM300100 00000KT P6SM SCT250=

USA.gov is the U.S. government's official web portal to all federal, state and local government web resources and services.